createdAt,value
2018-01-19T00:00:07.861Z,1.6
2018-01-19T00:01:16.684Z,1.6
2018-01-19T00:02:25.508Z,1.52
2018-01-19T00:03:34.337Z,1.47
2018-01-19T00:04:43.155Z,1.5
2018-01-19T00:05:51.980Z,1.44
2018-01-19T00:07:00.904Z,1.59
2018-01-19T00:08:09.729Z,1.44
2018-01-19T00:09:18.552Z,1.41
2018-01-19T00:10:27.374Z,1.45
2018-01-19T00:11:36.196Z,1.47
2018-01-19T00:12:45.170Z,1.42
2018-01-19T00:13:54.267Z,1.47
2018-01-19T00:15:03.092Z,1.47
2018-01-19T00:16:11.915Z,1.42
2018-01-19T00:17:20.746Z,1.5
2018-01-19T00:18:30.142Z,1.6
2018-01-19T00:19:38.969Z,1.42
2018-01-19T00:20:47.794Z,1.45
2018-01-19T00:21:56.617Z,1.48
2018-01-19T00:23:05.441Z,1.5
2018-01-19T00:24:14.365Z,1.45
2018-01-19T00:25:23.189Z,1.48
2018-01-19T00:26:32.294Z,1.52
2018-01-19T00:27:41.120Z,1.45
2018-01-19T00:28:50.217Z,1.52
2018-01-19T00:29:59.191Z,1.47
2018-01-19T00:31:08.011Z,1.47
2018-01-19T00:32:16.834Z,1.45
2018-01-19T00:33:25.657Z,1.47
2018-01-19T00:34:34.480Z,1.45
2018-01-19T00:35:43.459Z,1.47
2018-01-19T00:36:52.284Z,1.63
2018-01-19T00:38:01.109Z,1.5
2018-01-19T00:39:09.932Z,1.4
2018-01-19T00:40:18.754Z,1.45
2018-01-19T00:41:27.678Z,1.54
2018-01-19T00:42:36.502Z,1.58
2018-01-19T00:43:45.327Z,1.47
2018-01-19T00:44:54.151Z,1.52
2018-01-19T00:46:02.974Z,1.48
2018-01-19T00:47:11.804Z,1.45
2018-01-19T00:48:20.626Z,1.45
2018-01-19T00:49:29.720Z,1.47
2018-01-19T00:50:38.545Z,1.54
2018-01-19T00:51:47.369Z,1.42
2018-01-19T00:52:56.344Z,1.52
2018-01-19T00:54:05.168Z,1.48
2018-01-19T00:55:13.991Z,1.62
2018-01-19T00:56:22.812Z,1.47
2018-01-19T00:57:31.635Z,1.45
2018-01-19T00:58:40.459Z,1.44
2018-01-19T00:59:49.283Z,1.51
2018-01-19T01:00:58.106Z,1.51
2018-01-19T01:02:06.934Z,1.47
2018-01-19T01:03:15.749Z,1.45
2018-01-19T01:04:24.676Z,1.44
2018-01-19T01:05:33.498Z,1.45
2018-01-19T01:06:42.322Z,1.47
2018-01-19T01:07:51.147Z,1.42
2018-01-19T01:08:59.968Z,1.41
2018-01-19T01:10:08.942Z,1.44
2018-01-19T01:11:18.042Z,1.4
2018-01-19T01:12:27.142Z,1.36
2018-01-19T01:13:35.962Z,1.37
2018-01-19T01:14:44.784Z,1.41
2018-01-19T01:15:53.607Z,1.37
2018-01-19T01:17:02.431Z,1.4
2018-01-19T01:18:11.255Z,1.36
2018-01-19T01:19:20.079Z,1.33
2018-01-19T01:20:28.902Z,1.42
2018-01-19T01:21:37.927Z,1.3
2018-01-19T01:22:46.750Z,1.3
2018-01-19T01:23:55.575Z,1.26
2018-01-19T01:25:04.397Z,1.24
2018-01-19T01:26:13.222Z,1.37
2018-01-19T01:27:22.449Z,1.41
2018-01-19T01:28:31.272Z,1.33
2018-01-19T01:29:40.094Z,1.36
2018-01-19T01:30:48.916Z,1.4
2018-01-19T01:31:57.743Z,1.33
2018-01-19T01:33:06.564Z,1.32
2018-01-19T01:34:15.660Z,1.3
2018-01-19T01:35:24.485Z,1.3
2018-01-19T01:36:33.308Z,1.36
2018-01-19T01:37:42.130Z,1.32
2018-01-19T01:38:51.103Z,1.37
2018-01-19T01:40:00.083Z,1.24
2018-01-19T01:41:09.182Z,1.29
2018-01-19T01:42:18.004Z,1.32
2018-01-19T01:43:27.108Z,1.27
2018-01-19T01:44:35.935Z,1.26
2018-01-19T01:45:44.758Z,1.27
2018-01-19T01:46:53.583Z,1.3
2018-01-19T01:48:02.407Z,1.29
2018-01-19T01:49:11.230Z,1.29
2018-01-19T01:50:20.205Z,1.24
2018-01-19T01:51:29.030Z,1.24
2018-01-19T01:52:37.854Z,1.24
2018-01-19T01:53:46.677Z,1.27
2018-01-19T01:54:55.503Z,1.32
2018-01-19T01:56:04.425Z,1.29
2018-01-19T01:57:13.249Z,1.36
2018-01-19T01:58:22.349Z,1.3
2018-01-19T01:59:31.172Z,1.27
2018-01-19T02:00:39.995Z,1.3
2018-01-19T02:01:49.119Z,1.33
2018-01-19T02:02:57.940Z,1.27
2018-01-19T02:04:06.766Z,1.29
2018-01-19T02:05:15.589Z,1.33
2018-01-19T02:06:24.413Z,1.27
2018-01-19T02:07:33.287Z,1.36
2018-01-19T02:08:42.110Z,1.3
2018-01-19T02:09:50.934Z,1.27
2018-01-19T02:10:59.756Z,1.3
2018-01-19T02:12:08.582Z,1.37
2018-01-19T02:13:17.405Z,1.36
2018-01-19T02:14:26.228Z,1.42
2018-01-19T02:15:35.054Z,1.44
2018-01-19T02:16:43.877Z,1.4
2018-01-19T02:17:52.703Z,1.41
2018-01-19T02:19:01.927Z,1.37
2018-01-19T02:20:10.751Z,1.37
2018-01-19T02:21:19.577Z,1.37
2018-01-19T02:22:28.680Z,1.37
2018-01-19T02:23:37.775Z,1.3
2018-01-19T02:24:46.697Z,1.27
2018-01-19T02:25:55.521Z,1.27
2018-01-19T02:27:04.621Z,1.27
2018-01-19T02:28:13.449Z,1.29
2018-01-19T02:29:22.272Z,1.27
2018-01-19T02:30:31.196Z,1.3
2018-01-19T02:31:40.021Z,1.23
2018-01-19T02:32:48.847Z,1.27
2018-01-19T02:33:57.675Z,1.3
2018-01-19T02:35:06.498Z,1.3
2018-01-19T02:36:15.422Z,1.37
2018-01-19T02:37:24.247Z,1.29
2018-01-19T02:38:33.358Z,1.24
2018-01-19T02:39:42.177Z,1.29
2018-01-19T02:40:51.001Z,1.29
2018-01-19T02:42:00.075Z,1.27
2018-01-19T02:43:08.898Z,1.36
2018-01-19T02:44:17.721Z,1.36
2018-01-19T02:45:26.545Z,1.36
2018-01-19T02:46:35.370Z,1.42
2018-01-19T02:47:44.445Z,1.24
2018-01-19T02:48:53.268Z,1.37
2018-01-19T02:50:02.095Z,1.33
2018-01-19T02:51:10.919Z,1.37
2018-01-19T02:52:19.743Z,1.47
2018-01-19T02:53:28.668Z,1.42
2018-01-19T02:54:37.496Z,1.42
2018-01-19T02:55:46.320Z,1.48
2018-01-19T02:56:55.143Z,1.51
2018-01-19T02:58:03.967Z,1.62
2018-01-19T02:59:12.791Z,1.54
2018-01-19T03:00:21.615Z,1.58
2018-01-19T03:01:30.441Z,1.65
2018-01-19T03:02:39.265Z,1.65
2018-01-19T03:03:48.091Z,1.59
2018-01-19T03:04:56.916Z,1.62
2018-01-19T03:06:05.741Z,1.52
2018-01-19T03:07:14.563Z,1.48
2018-01-19T03:08:23.388Z,1.42
2018-01-19T03:09:32.215Z,1.42
2018-01-19T03:10:41.042Z,1.44
2018-01-19T03:11:49.864Z,1.44
2018-01-19T03:12:58.690Z,1.45
2018-01-19T03:14:07.517Z,1.44
2018-01-19T03:15:16.612Z,1.47
2018-01-19T03:16:25.739Z,1.48
2018-01-19T03:17:34.838Z,1.48
2018-01-19T03:18:43.662Z,1.42
2018-01-19T03:19:52.758Z,1.47
2018-01-19T03:21:01.584Z,1.48
2018-01-19T03:22:10.707Z,1.5
2018-01-19T03:23:19.536Z,1.44
2018-01-19T03:24:28.357Z,1.47
2018-01-19T03:25:37.182Z,1.42
2018-01-19T03:26:46.007Z,1.42
2018-01-19T03:27:54.933Z,1.42
2018-01-19T03:29:03.761Z,1.34
2018-01-19T03:30:13.134Z,1.37
2018-01-19T03:31:21.995Z,1.33
2018-01-19T03:32:30.782Z,1.4
2018-01-19T03:33:39.907Z,1.3
2018-01-19T03:34:48.731Z,1.42
2018-01-19T03:35:57.557Z,1.34
2018-01-19T03:37:06.382Z,1.27
2018-01-19T03:38:15.205Z,1.3
2018-01-19T03:39:24.330Z,1.32
2018-01-19T03:40:33.160Z,1.27
2018-01-19T03:41:41.979Z,1.22
2018-01-19T03:42:50.804Z,1.22
2018-01-19T03:43:59.900Z,1.15
2018-01-19T03:45:09.022Z,1.16
2018-01-19T03:46:17.846Z,1.14
2018-01-19T03:47:26.670Z,1.15
2018-01-19T03:48:35.495Z,1.15
2018-01-19T03:49:44.320Z,1.22
2018-01-19T03:50:53.546Z,1.12
2018-01-19T03:52:02.370Z,1.18
2018-01-19T03:53:11.194Z,1.24
2018-01-19T03:54:20.019Z,1.26
2018-01-19T03:55:28.844Z,1.26
2018-01-19T03:56:37.918Z,1.16
2018-01-19T03:57:46.741Z,1.27
2018-01-19T03:58:55.564Z,1.2
2018-01-19T04:00:04.679Z,1.15
2018-01-19T04:01:13.495Z,1.18
2018-01-19T04:02:22.620Z,1.15
2018-01-19T04:03:31.445Z,1.14
2018-01-19T04:04:40.267Z,1.09
2018-01-19T04:05:49.091Z,1.09
2018-01-19T04:06:57.913Z,1.11
2018-01-19T04:08:06.837Z,1.14
2018-01-19T04:09:15.663Z,1.09
2018-01-19T04:10:24.485Z,1.14
2018-01-19T04:11:33.308Z,1.12
2018-01-19T04:12:42.132Z,1.09
2018-01-19T04:13:50.956Z,1.16
2018-01-19T04:15:00.056Z,1.11
2018-01-19T04:16:08.878Z,1.02
2018-01-19T04:17:17.702Z,1.05
2018-01-19T04:18:26.532Z,0.98
2018-01-19T04:19:35.351Z,0.98
2018-01-19T04:20:44.218Z,0.97
2018-01-19T04:21:53.002Z,1.04
2018-01-19T04:23:01.825Z,1.05
2018-01-19T04:24:10.656Z,0.94
2018-01-19T04:25:19.873Z,1.08
2018-01-19T04:26:28.694Z,1.02
2018-01-19T04:27:37.519Z,1.02
2018-01-19T04:28:46.341Z,1.04
2018-01-19T04:29:55.165Z,1.08
2018-01-19T04:31:04.087Z,1.08
2018-01-19T04:32:12.912Z,1.04
2018-01-19T04:33:21.738Z,1.05
2018-01-19T04:34:30.846Z,0.97
2018-01-19T04:35:39.672Z,1.02
2018-01-19T04:36:48.544Z,1.02
2018-01-19T04:37:57.367Z,0.93
2018-01-19T04:39:06.193Z,1.02
2018-01-19T04:40:15.017Z,0.96
2018-01-19T04:41:24.120Z,0.97
2018-01-19T04:42:32.943Z,0.88
2018-01-19T04:43:42.041Z,1
2018-01-19T04:44:50.865Z,0.96
2018-01-19T04:45:59.689Z,0.88
2018-01-19T04:47:08.513Z,0.9
2018-01-19T04:48:17.637Z,0.97
2018-01-19T04:49:26.463Z,0.94
2018-01-19T04:50:35.288Z,0.97
2018-01-19T04:51:44.112Z,0.97
2018-01-19T04:52:52.935Z,0.93
2018-01-19T04:54:01.908Z,0.87
2018-01-19T04:55:11.005Z,0.84
2018-01-19T04:56:19.828Z,0.9
2018-01-19T04:57:28.652Z,0.83
2018-01-19T04:58:37.477Z,0.94
2018-01-19T04:59:46.303Z,0.9
2018-01-19T05:00:55.126Z,0.9
2018-01-19T05:02:03.951Z,0.87
2018-01-19T05:03:12.777Z,0.72
2018-01-19T05:04:21.878Z,0.83
2018-01-19T05:05:30.703Z,0.8
2018-01-19T05:06:39.527Z,0.83
2018-01-19T05:07:48.354Z,0.79
2018-01-19T05:08:57.177Z,0.78
2018-01-19T05:10:06.277Z,0.83
2018-01-19T05:11:15.149Z,0.8
2018-01-19T05:12:23.974Z,0.69
2018-01-19T05:13:32.798Z,0.79
2018-01-19T05:14:41.620Z,0.83
2018-01-19T05:15:50.444Z,0.78
2018-01-19T05:16:59.367Z,0.76
2018-01-19T05:18:08.190Z,0.68
2018-01-19T05:19:17.016Z,0.7
2018-01-19T05:20:25.837Z,0.79
2018-01-19T05:21:34.660Z,0.73
2018-01-19T05:22:43.887Z,0.7
2018-01-19T05:23:52.708Z,0.75
2018-01-19T05:25:01.535Z,0.65
2018-01-19T05:26:10.358Z,0.73
2018-01-19T05:27:19.186Z,0.69
2018-01-19T05:28:28.106Z,0.69
2018-01-19T05:29:36.929Z,0.66
2018-01-19T05:30:45.755Z,0.68
2018-01-19T05:31:54.577Z,0.61
2018-01-19T05:33:03.676Z,0.57
2018-01-19T05:34:12.793Z,0.69
2018-01-19T05:35:21.618Z,0.6
2018-01-19T05:36:30.442Z,0.69
2018-01-19T05:37:39.265Z,0.58
2018-01-19T05:38:48.186Z,0.65
2018-01-19T05:39:57.317Z,0.69
2018-01-19T05:41:06.136Z,0.57
2018-01-19T05:42:14.962Z,0.62
2018-01-19T05:43:23.787Z,0.61
2018-01-19T05:44:32.611Z,0.58
2018-01-19T05:45:41.436Z,0.53
2018-01-19T05:46:50.258Z,0.62
2018-01-19T05:47:59.083Z,0.65
2018-01-19T05:49:07.908Z,0.5
2018-01-19T05:50:16.731Z,0.58
2018-01-19T05:51:25.655Z,0.6
2018-01-19T05:52:34.476Z,0.62
2018-01-19T05:53:43.579Z,0.6
2018-01-19T05:54:52.671Z,0.49
2018-01-19T05:56:01.495Z,0.5
2018-01-19T05:57:10.321Z,0.6
2018-01-19T05:58:19.149Z,0.46
2018-01-19T05:59:27.985Z,0.55
2018-01-19T06:00:36.815Z,0.53
2018-01-19T06:01:45.639Z,0.5
2018-01-19T06:02:54.514Z,0.53
2018-01-19T06:04:03.337Z,0.5
2018-01-19T06:05:12.217Z,0.51
2018-01-19T06:06:20.987Z,0.55
2018-01-19T06:07:29.809Z,0.53
2018-01-19T06:08:38.785Z,0.53
2018-01-19T06:09:47.610Z,0.53
2018-01-19T06:10:56.705Z,0.55
2018-01-19T06:12:05.528Z,0.58
2018-01-19T06:13:14.351Z,0.5
2018-01-19T06:14:23.276Z,0.5
2018-01-19T06:15:32.098Z,0.58
2018-01-19T06:16:40.923Z,0.47
2018-01-19T06:17:49.794Z,0.49
2018-01-19T06:18:58.575Z,0.53
2018-01-19T06:20:07.400Z,0.49
2018-01-19T06:21:16.223Z,0.5
2018-01-19T06:22:25.046Z,0.46
2018-01-19T06:23:33.867Z,0.41
2018-01-19T06:24:42.693Z,0.42
2018-01-19T06:25:51.616Z,0.47
2018-01-19T06:27:00.441Z,0.49
2018-01-19T06:28:09.265Z,0.44
2018-01-19T06:29:18.087Z,0.5
2018-01-19T06:30:27.189Z,0.42
2018-01-19T06:31:36.011Z,0.39
2018-01-19T06:32:44.835Z,0.47
2018-01-19T06:33:53.935Z,0.46
2018-01-19T06:35:02.759Z,0.46
2018-01-19T06:36:11.582Z,0.39
2018-01-19T06:37:20.507Z,0.44
2018-01-19T06:38:29.330Z,0.41
2018-01-19T06:39:38.153Z,0.5
2018-01-19T06:40:46.986Z,0.57
2018-01-19T06:41:55.813Z,0.46
2018-01-19T06:43:05.036Z,0.41
2018-01-19T06:44:14.133Z,0.51
2018-01-19T06:45:22.956Z,0.42
2018-01-19T06:46:31.780Z,0.47
2018-01-19T06:47:40.605Z,0.46
2018-01-19T06:48:50.101Z,0.38
2018-01-19T06:49:58.927Z,0.39
2018-01-19T06:51:07.751Z,0.42
2018-01-19T06:52:16.574Z,0.38
2018-01-19T06:53:25.397Z,0.41
2018-01-19T06:54:34.272Z,0.38
2018-01-19T06:55:43.097Z,0.33
2018-01-19T06:56:51.920Z,0.33
2018-01-19T06:58:00.744Z,0.41
2018-01-19T06:59:09.567Z,0.39
2018-01-19T07:00:18.538Z,0.38
2018-01-19T07:01:27.361Z,0.39
2018-01-19T07:02:36.185Z,0.39
2018-01-19T07:03:45.008Z,0.35
2018-01-19T07:04:53.829Z,0.29
2018-01-19T07:06:02.904Z,0.38
2018-01-19T07:07:11.731Z,0.36
2018-01-19T07:08:20.560Z,0.46
2018-01-19T07:09:29.382Z,0.46
2018-01-19T07:10:38.205Z,0.41
2018-01-19T07:11:47.079Z,0.55
2018-01-19T07:12:56.180Z,0.41
2018-01-19T07:14:05.280Z,0.5
2018-01-19T07:15:14.376Z,0.61
2018-01-19T07:16:23.482Z,0.62
2018-01-19T07:17:32.452Z,0.57
2018-01-19T07:18:41.278Z,0.69
2018-01-19T07:19:50.375Z,0.69
2018-01-19T07:20:59.197Z,0.76
2018-01-19T07:22:08.020Z,0.58
2018-01-19T07:23:16.894Z,0.69
2018-01-19T07:24:25.717Z,0.66
2018-01-19T07:25:34.540Z,0.6
2018-01-19T07:26:43.363Z,0.73
2018-01-19T07:27:52.188Z,0.68
2018-01-19T07:29:01.162Z,0.73
2018-01-19T07:30:09.985Z,0.72
2018-01-19T07:31:18.809Z,0.68
2018-01-19T07:32:27.632Z,0.75
2018-01-19T07:33:36.459Z,0.75
2018-01-19T07:34:45.329Z,0.78
2018-01-19T07:35:54.153Z,0.73
2018-01-19T07:37:02.977Z,0.76
2018-01-19T07:38:12.094Z,0.79
2018-01-19T07:39:20.915Z,0.78
2018-01-19T07:40:29.889Z,0.79
2018-01-19T07:41:38.719Z,0.87
2018-01-19T07:42:47.539Z,0.87
2018-01-19T07:43:56.363Z,0.91
2018-01-19T07:45:05.185Z,0.97
2018-01-19T07:46:14.408Z,0.88
2018-01-19T07:47:23.234Z,0.93
2018-01-19T07:48:32.058Z,0.98
2018-01-19T07:49:41.161Z,0.91
2018-01-19T07:50:49.985Z,0.9
2018-01-19T07:51:58.909Z,0.98
2018-01-19T07:53:07.732Z,0.94
2018-01-19T07:54:16.557Z,1.06
2018-01-19T07:55:25.381Z,0.98
2018-01-19T07:56:34.205Z,1.06
2018-01-19T07:57:43.302Z,1.08
2018-01-19T07:58:52.174Z,1.14
2018-01-19T08:00:00.952Z,1.08
2018-01-19T08:01:09.777Z,1.05
2018-01-19T08:02:18.603Z,1.12
2018-01-19T08:03:27.580Z,1.16
2018-01-19T08:04:36.404Z,1.15
2018-01-19T08:05:45.224Z,1.15
2018-01-19T08:06:54.049Z,1.22
2018-01-19T08:08:02.878Z,1.16
2018-01-19T08:09:12.249Z,1.15
2018-01-19T08:10:21.072Z,1.24
2018-01-19T08:11:29.897Z,1.32
2018-01-19T08:12:38.724Z,1.23
2018-01-19T08:13:47.547Z,1.23
2018-01-19T08:14:56.619Z,1.26
2018-01-19T08:16:05.444Z,1.24
2018-01-19T08:17:14.266Z,1.32
2018-01-19T08:18:23.089Z,1.34
2018-01-19T08:19:31.912Z,1.3
2018-01-19T08:20:40.786Z,1.24
2018-01-19T08:21:49.613Z,1.36
2018-01-19T08:22:58.436Z,1.29
2018-01-19T08:24:07.261Z,1.22
2018-01-19T08:25:16.085Z,1.4
2018-01-19T08:26:24.962Z,1.36
2018-01-19T08:27:33.785Z,1.44
2018-01-19T08:28:42.612Z,1.37
2018-01-19T08:29:51.711Z,1.37
2018-01-19T08:31:00.537Z,1.44
2018-01-19T08:32:09.360Z,1.42
2018-01-19T08:33:18.186Z,1.48
2018-01-19T08:34:27.010Z,1.37
2018-01-19T08:35:35.834Z,1.47
2018-01-19T08:36:44.930Z,1.45
2018-01-19T08:37:54.059Z,1.45
2018-01-19T08:39:02.881Z,1.52
2018-01-19T08:40:11.705Z,1.54
2018-01-19T08:41:20.532Z,1.55
2018-01-19T08:42:29.632Z,1.58
2018-01-19T08:43:38.508Z,1.6
2018-01-19T08:44:47.331Z,1.6
2018-01-19T08:45:56.158Z,1.58
2018-01-19T08:47:04.987Z,1.59
2018-01-19T08:48:13.810Z,1.7
2018-01-19T08:49:22.783Z,1.59
2018-01-19T08:50:31.610Z,1.69
2018-01-19T08:51:40.434Z,1.69
2018-01-19T08:52:49.259Z,1.68
2018-01-19T08:53:58.085Z,1.66
2018-01-19T08:55:07.163Z,1.79
2018-01-19T08:56:16.259Z,1.66
2018-01-19T08:57:25.091Z,1.73
2018-01-19T08:58:33.916Z,1.81
2018-01-19T08:59:42.739Z,1.77
2018-01-19T09:00:51.714Z,1.77
2018-01-19T09:02:00.539Z,1.77
2018-01-19T09:03:09.361Z,1.69
2018-01-19T09:04:18.188Z,1.79
2018-01-19T09:05:27.013Z,1.73
2018-01-19T09:06:36.241Z,1.79
2018-01-19T09:07:45.067Z,1.76
2018-01-19T09:08:53.892Z,1.8
2018-01-19T09:10:02.715Z,1.81
2018-01-19T09:11:11.543Z,1.88
2018-01-19T09:12:20.691Z,1.87
2018-01-19T09:13:29.517Z,1.86
2018-01-19T09:14:38.342Z,1.8
2018-01-19T09:15:47.170Z,1.83
2018-01-19T09:16:55.993Z,1.83
2018-01-19T09:18:04.971Z,1.88
2018-01-19T09:19:13.791Z,1.86
2018-01-19T09:20:22.619Z,1.9
2018-01-19T09:21:31.442Z,1.98
2018-01-19T09:22:40.543Z,1.95
2018-01-19T09:23:49.515Z,1.88
2018-01-19T09:24:58.339Z,1.9
2018-01-19T09:26:07.166Z,1.91
2018-01-19T09:27:15.990Z,2
2018-01-19T09:28:24.815Z,1.91
2018-01-19T09:29:33.790Z,1.93
2018-01-19T09:30:42.615Z,1.99
2018-01-19T09:31:51.444Z,1.99
2018-01-19T09:33:00.545Z,2.14
2018-01-19T09:34:09.371Z,1.93
2018-01-19T09:35:18.597Z,2.06
2018-01-19T09:36:27.423Z,2.02
2018-01-19T09:37:36.247Z,2.06
2018-01-19T09:38:45.110Z,2.06
2018-01-19T09:39:53.896Z,2.02
2018-01-19T09:41:02.726Z,2.12
2018-01-19T09:42:11.546Z,2.09
2018-01-19T09:43:20.374Z,2.16
2018-01-19T09:44:29.210Z,2.25
2018-01-19T09:45:38.025Z,2.17
2018-01-19T09:46:46.999Z,2.14
2018-01-19T09:47:55.829Z,2.17
2018-01-19T09:49:04.654Z,2.23
2018-01-19T09:50:13.757Z,2.25
2018-01-19T09:51:22.581Z,2.14
2018-01-19T09:52:31.506Z,2.21
2018-01-19T09:53:40.335Z,2.2
2018-01-19T09:54:49.160Z,2.18
2018-01-19T09:55:57.986Z,2.18
2018-01-19T09:57:06.813Z,2.35
2018-01-19T09:58:16.040Z,2.31
2018-01-19T09:59:24.865Z,2.34
2018-01-19T10:00:33.691Z,2.3
2018-01-19T10:01:42.516Z,2.35
2018-01-19T10:02:51.345Z,2.41
2018-01-19T10:04:00.268Z,2.42
2018-01-19T10:05:09.094Z,2.41
2018-01-19T10:06:17.921Z,2.43
2018-01-19T10:07:26.746Z,2.41
2018-01-19T10:08:35.853Z,2.41
2018-01-19T10:09:44.678Z,2.36
2018-01-19T10:10:53.781Z,2.3
2018-01-19T10:12:02.609Z,2.34
2018-01-19T10:13:11.711Z,2.39
2018-01-19T10:14:20.812Z,2.34
2018-01-19T10:15:29.686Z,2.41
2018-01-19T10:16:38.512Z,2.39
2018-01-19T10:17:47.613Z,2.28
2018-01-19T10:18:56.452Z,2.36
2018-01-19T10:20:05.262Z,2.31
2018-01-19T10:21:14.239Z,2.31
2018-01-19T10:22:23.065Z,2.41
2018-01-19T10:23:31.890Z,2.43
2018-01-19T10:24:40.716Z,2.52
2018-01-19T10:25:49.543Z,2.41
2018-01-19T10:26:58.367Z,2.38
2018-01-19T10:28:07.193Z,2.31
2018-01-19T10:29:16.020Z,2.35
2018-01-19T10:30:24.845Z,2.35
2018-01-19T10:31:33.676Z,2.36
2018-01-19T10:32:42.506Z,2.35
2018-01-19T10:33:51.330Z,2.36
2018-01-19T10:35:00.155Z,2.39
2018-01-19T10:36:08.981Z,2.39
2018-01-19T10:37:17.810Z,2.53
2018-01-19T10:38:26.634Z,2.41
2018-01-19T10:39:35.461Z,2.46
2018-01-19T10:40:44.294Z,2.42
2018-01-19T10:41:53.120Z,2.43
2018-01-19T10:43:02.319Z,2.43
2018-01-19T10:44:11.147Z,2.43
2018-01-19T10:45:19.975Z,2.6
2018-01-19T10:46:28.801Z,2.56
2018-01-19T10:47:37.627Z,2.57
2018-01-19T10:48:46.603Z,2.64
2018-01-19T10:49:55.430Z,2.6
2018-01-19T10:51:04.254Z,2.67
2018-01-19T10:52:13.081Z,2.6
2018-01-19T10:53:21.905Z,2.54
2018-01-19T10:54:30.780Z,2.67
2018-01-19T10:55:39.606Z,2.6
2018-01-19T10:56:48.433Z,2.61
2018-01-19T10:57:57.257Z,2.63
2018-01-19T10:59:06.083Z,2.63
2018-01-19T11:00:14.909Z,2.67
2018-01-19T11:01:24.027Z,2.67
2018-01-19T11:02:32.833Z,2.72
2018-01-19T11:03:41.657Z,2.72
2018-01-19T11:04:50.762Z,2.77
2018-01-19T11:05:59.591Z,2.82
2018-01-19T11:07:08.416Z,2.85
2018-01-19T11:08:17.246Z,2.79
2018-01-19T11:09:26.068Z,2.82
2018-01-19T11:10:34.895Z,2.84
2018-01-19T11:11:44.024Z,2.87
2018-01-19T11:12:52.847Z,2.89
2018-01-19T11:14:01.677Z,2.9
2018-01-19T11:15:10.504Z,3
2018-01-19T11:16:19.333Z,3.03
2018-01-19T11:17:28.876Z,2.95
2018-01-19T11:18:37.691Z,2.93
2018-01-19T11:19:46.517Z,2.96
2018-01-19T11:20:55.346Z,3.05
2018-01-19T11:22:04.452Z,3.05
2018-01-19T11:23:13.278Z,3.05
2018-01-19T11:24:22.105Z,3.05
2018-01-19T11:25:30.934Z,3.06
2018-01-19T11:26:39.809Z,3.11
2018-01-19T11:27:48.638Z,3.17
2018-01-19T11:28:57.612Z,3.15
2018-01-19T11:30:06.441Z,3.06
2018-01-19T11:31:15.270Z,3.08
2018-01-19T11:32:24.094Z,3.15
2018-01-19T11:33:32.922Z,3.26
2018-01-19T11:34:41.746Z,3.2
2018-01-19T11:35:50.573Z,3.28
2018-01-19T11:36:59.402Z,3.35
2018-01-19T11:38:08.231Z,3.24
2018-01-19T11:39:17.056Z,3.26
2018-01-19T11:40:25.933Z,3.29
2018-01-19T11:41:34.758Z,3.35
2018-01-19T11:42:43.586Z,3.33
2018-01-19T11:43:52.413Z,3.35
2018-01-19T11:45:01.241Z,3.45
2018-01-19T11:46:10.367Z,3.36
2018-01-19T11:47:19.194Z,3.47
2018-01-19T11:48:28.021Z,3.4
2018-01-19T11:49:36.849Z,3.47
2018-01-19T11:50:45.676Z,3.43
2018-01-19T11:51:54.753Z,3.52
2018-01-19T11:53:03.581Z,3.54
2018-01-19T11:54:12.407Z,3.54
2018-01-19T11:55:21.505Z,3.54
2018-01-19T11:56:30.335Z,3.66
2018-01-19T11:57:39.462Z,3.6
2018-01-19T11:58:48.563Z,3.68
2018-01-19T11:59:57.387Z,3.66
2018-01-19T12:01:06.492Z,3.68
2018-01-19T12:02:15.320Z,3.69
2018-01-19T12:03:24.248Z,3.72
2018-01-19T12:04:33.076Z,3.65
2018-01-19T12:05:41.954Z,3.7
2018-01-19T12:06:50.780Z,3.65
2018-01-19T12:07:59.607Z,3.7
2018-01-19T12:09:08.433Z,3.68
2018-01-19T12:10:17.259Z,3.72
2018-01-19T12:11:26.087Z,3.7
2018-01-19T12:12:34.913Z,3.73
2018-01-19T12:13:43.739Z,3.75
2018-01-19T12:14:52.668Z,3.72
2018-01-19T12:16:01.498Z,3.69
2018-01-19T12:17:10.322Z,3.68
2018-01-19T12:18:19.149Z,3.69
2018-01-19T12:19:27.978Z,3.7
2018-01-19T12:20:37.105Z,3.62
2018-01-19T12:21:45.933Z,3.66
2018-01-19T12:22:54.765Z,3.68
2018-01-19T12:24:03.593Z,3.73
2018-01-19T12:25:12.414Z,3.65
2018-01-19T12:26:21.343Z,3.66
2018-01-19T12:27:30.446Z,3.66
2018-01-19T12:28:39.546Z,3.72
2018-01-19T12:29:48.380Z,3.75
2018-01-19T12:30:57.206Z,3.75
2018-01-19T12:32:06.284Z,3.84
2018-01-19T12:33:15.111Z,3.84
2018-01-19T12:34:23.936Z,3.76
2018-01-19T12:35:32.765Z,3.9
2018-01-19T12:36:41.594Z,3.8
2018-01-19T12:37:50.572Z,3.86
2018-01-19T12:38:59.396Z,3.93
2018-01-19T12:40:08.500Z,3.83
2018-01-19T12:41:17.326Z,3.86
2018-01-19T12:42:26.154Z,3.87
2018-01-19T12:43:35.080Z,3.87
2018-01-19T12:44:43.907Z,3.97
2018-01-19T12:45:52.733Z,4
2018-01-19T12:47:01.560Z,3.96
2018-01-19T12:48:10.388Z,4.06
2018-01-19T12:49:19.465Z,4
2018-01-19T12:50:28.297Z,4.05
2018-01-19T12:51:37.404Z,4.02
2018-01-19T12:52:46.240Z,4.06
2018-01-19T12:53:55.061Z,3.93
2018-01-19T12:55:04.168Z,4.09
2018-01-19T12:56:12.996Z,4.02
2018-01-19T12:57:21.826Z,3.96
2018-01-19T12:58:30.656Z,4
2018-01-19T12:59:39.483Z,3.97
2018-01-19T13:00:48.309Z,3.88
2018-01-19T13:01:57.136Z,3.88
2018-01-19T13:03:05.966Z,3.94
2018-01-19T13:04:15.068Z,4.04
2018-01-19T13:05:23.897Z,4.06
2018-01-19T13:06:32.771Z,3.98
2018-01-19T13:07:41.869Z,3.97
2018-01-19T13:08:50.702Z,4.09
2018-01-19T13:09:59.529Z,4.2
2018-01-19T13:11:08.355Z,4.15
2018-01-19T13:12:17.487Z,4.15
2018-01-19T13:13:26.319Z,4.12
2018-01-19T13:14:35.421Z,4.08
2018-01-19T13:15:44.303Z,4.15
2018-01-19T13:16:53.126Z,4.08
2018-01-19T13:18:02.284Z,4.14
2018-01-19T13:19:11.107Z,4.22
2018-01-19T13:20:19.937Z,4.11
2018-01-19T13:21:28.764Z,4.12
2018-01-19T13:22:37.590Z,4.11
2018-01-19T13:23:46.570Z,4.09
2018-01-19T13:24:55.397Z,4.06
2018-01-19T13:26:04.226Z,4.16
2018-01-19T13:27:13.054Z,4.16
2018-01-19T13:28:22.162Z,4.26
2018-01-19T13:29:31.094Z,4.22
2018-01-19T13:30:40.197Z,4.24
2018-01-19T13:31:49.025Z,4.29
2018-01-19T13:32:57.854Z,4.3
2018-01-19T13:34:06.682Z,4.36
2018-01-19T13:35:15.511Z,4.34
2018-01-19T13:36:24.340Z,4.29
2018-01-19T13:37:33.169Z,4.33
2018-01-19T13:38:41.998Z,4.32
2018-01-19T13:39:50.827Z,4.26
2018-01-19T13:40:59.754Z,4.29
2018-01-19T13:42:08.584Z,4.32
2018-01-19T13:43:17.410Z,4.36
2018-01-19T13:44:26.240Z,4.32
2018-01-19T13:45:35.070Z,4.32
2018-01-19T13:46:44.196Z,4.29
2018-01-19T13:47:53.027Z,4.27
2018-01-19T13:49:01.853Z,4.32
2018-01-19T13:50:10.680Z,4.29
2018-01-19T13:51:19.508Z,4.4
2018-01-19T13:52:28.584Z,4.34
2018-01-19T13:53:37.414Z,4.26
2018-01-19T13:54:46.240Z,4.37
2018-01-19T13:55:55.067Z,4.36
2018-01-19T13:57:03.896Z,4.3
2018-01-19T13:58:12.727Z,4.29
2018-01-19T13:59:21.556Z,4.3
2018-01-19T14:00:30.385Z,4.12
2018-01-19T14:01:39.214Z,4.33
2018-01-19T14:02:48.044Z,4.3
2018-01-19T14:03:57.166Z,4.34
2018-01-19T14:05:05.995Z,4.33
2018-01-19T14:06:14.824Z,4.4
2018-01-19T14:07:23.653Z,4.3
2018-01-19T14:08:32.483Z,4.32
2018-01-19T14:09:41.318Z,4.23
2018-01-19T14:10:50.147Z,4.29
2018-01-19T14:11:58.973Z,4.26
2018-01-19T14:13:07.803Z,4.27
2018-01-19T14:14:16.632Z,4.3
2018-01-19T14:15:25.457Z,4.26
2018-01-19T14:16:34.285Z,4.2
2018-01-19T14:17:43.112Z,4.29
2018-01-19T14:18:52.212Z,4.29
2018-01-19T14:20:01.044Z,4.23
2018-01-19T14:21:09.869Z,4.26
2018-01-19T14:22:18.696Z,4.16
2018-01-19T14:23:27.820Z,4.14
2018-01-19T14:24:36.700Z,4.15
2018-01-19T14:25:45.529Z,4.15
2018-01-19T14:26:54.359Z,4.24
2018-01-19T14:28:03.184Z,4.24
2018-01-19T14:29:12.162Z,4.24
2018-01-19T14:30:20.988Z,4.18
2018-01-19T14:31:29.816Z,4.16
2018-01-19T14:32:38.644Z,4.24
2018-01-19T14:33:47.470Z,4.15
2018-01-19T14:34:56.980Z,4.29
2018-01-19T14:36:05.811Z,4.24
2018-01-19T14:37:14.633Z,4.15
2018-01-19T14:38:23.463Z,4.15
2018-01-19T14:39:32.290Z,4.15
2018-01-19T14:40:41.489Z,4.2
2018-01-19T14:41:50.318Z,4.16
2018-01-19T14:42:59.144Z,4.08
2018-01-19T14:44:08.245Z,4.14
2018-01-19T14:45:17.074Z,4.11
2018-01-19T14:46:26.003Z,4.15
2018-01-19T14:47:34.830Z,4.14
2018-01-19T14:48:43.659Z,4.11
2018-01-19T14:49:52.488Z,4.06
2018-01-19T14:51:01.314Z,4.08
2018-01-19T14:52:10.147Z,3.94
2018-01-19T14:53:19.246Z,4
2018-01-19T14:54:28.087Z,3.98
2018-01-19T14:55:36.916Z,3.93
2018-01-19T14:56:45.740Z,3.96
2018-01-19T14:57:54.919Z,3.97
2018-01-19T14:59:03.747Z,4.04
2018-01-19T15:00:12.576Z,3.96
2018-01-19T15:01:21.405Z,3.94
2018-01-19T15:02:30.233Z,3.98
2018-01-19T15:03:39.461Z,4.06
2018-01-19T15:04:48.288Z,3.96
2018-01-19T15:05:57.125Z,4.02
2018-01-19T15:07:05.953Z,4.04
2018-01-19T15:08:14.783Z,3.94
2018-01-19T15:09:23.710Z,4.08
2018-01-19T15:10:32.740Z,3.93
2018-01-19T15:11:41.589Z,3.97
2018-01-19T15:12:50.394Z,4.09
2018-01-19T15:13:59.222Z,3.97
2018-01-19T15:15:08.253Z,4.05
2018-01-19T15:16:17.079Z,3.94
2018-01-19T15:17:26.182Z,4.05
2018-01-19T15:18:35.865Z,4
2018-01-19T15:19:44.907Z,3.93
2018-01-19T15:20:54.036Z,3.9